Time;durP1;ratioP1;P1;durP2;ratioP2;P2;SDS_P1;SDS_P2;PMS_P1;PMS_P2;Temp;Humidity;BMP_temperature;BMP_pressure;BME280_temperature;BME280_humidity;BME280_pressure;Samples;Min_cycle;Max_cycle;Signal;HPM_P1;HPM_P2
2022/06/27 00:00:34;;;;;;;4.77;3.23;;;16.50;99.90;;;;;;5047104;28;20213;-60
2022/06/27 00:03:02;;;;;;;5.23;3.27;;;16.50;99.90;;;;;;5045239;28;20255;-60
2022/06/27 00:05:31;;;;;;;4.27;3.20;;;16.40;99.90;;;;;;5047427;28;20193;-60
2022/06/27 00:08:00;;;;;;;8.37;3.73;;;16.40;99.90;;;;;;5044945;28;20229;-60
2022/06/27 00:10:29;;;;;;;3.67;3.27;;;16.40;99.90;;;;;;5041802;28;20312;-60
2022/06/27 00:12:57;;;;;;;4.27;3.40;;;16.50;99.90;;;;;;5049151;28;20239;-60
2022/06/27 00:15:26;;;;;;;5.43;3.73;;;16.40;99.90;;;;;;5048090;28;20249;-60
2022/06/27 00:17:57;;;;;;;4.00;3.43;;;16.40;99.90;;;;;;5044632;28;20216;-60
2022/06/27 00:20:26;;;;;;;4.23;3.47;;;16.40;99.90;;;;;;5051144;28;20270;-60
2022/06/27 00:22:54;;;;;;;4.73;3.80;;;16.40;99.90;;;;;;5046077;28;20280;-61
2022/06/27 00:25:23;;;;;;;4.03;3.47;;;16.30;99.90;;;;;;5078969;28;20547;-60
2022/06/27 00:27:51;;;;;;;5.17;3.80;;;16.30;99.90;;;;;;5060272;28;20198;-60
2022/06/27 00:30:21;;;;;;;4.60;3.70;;;16.30;99.90;;;;;;5049990;28;20656;-60
2022/06/27 00:32:49;;;;;;;6.33;3.70;;;16.30;99.90;;;;;;5044562;28;20895;-60
2022/06/27 00:35:19;;;;;;;4.10;3.80;;;16.30;99.90;;;;;;5046046;28;20275;-60
2022/06/27 00:37:48;;;;;;;3.80;3.50;;;16.20;99.90;;;;;;5047787;28;20744;-62
2022/06/27 00:40:17;;;;;;;4.33;3.30;;;16.20;99.90;;;;;;5049361;28;20653;-62
2022/06/27 00:42:45;;;;;;;4.33;3.77;;;16.10;99.90;;;;;;5046004;28;20202;-62
2022/06/27 00:45:13;;;;;;;3.73;3.27;;;16.10;99.90;;;;;;5053612;28;20380;-60
2022/06/27 00:47:42;;;;;;;3.87;3.47;;;16.10;99.90;;;;;;5045695;28;20204;-62
2022/06/27 00:50:11;;;;;;;6.53;3.87;;;16.10;99.90;;;;;;5047371;28;20264;-62
2022/06/27 00:52:41;;;;;;;5.70;3.83;;;16.10;99.90;;;;;;5042242;28;20205;-62
2022/06/27 00:55:10;;;;;;;4.30;3.30;;;16.10;99.90;;;;;;5047658;28;20200;-62
2022/06/27 00:57:39;;;;;;;6.13;3.50;;;16.10;99.90;;;;;;5047563;28;20200;-60
2022/06/27 01:00:09;;;;;;;4.40;3.63;;;16.10;99.90;;;;;;5048347;28;20287;-60
2022/06/27 01:02:38;;;;;;;4.27;3.77;;;16.10;99.90;;;;;;5043270;28;20223;-60
2022/06/27 01:05:11;;;;;;;4.77;3.13;;;16.10;99.90;;;;;;5048412;28;20201;-60
2022/06/27 01:07:41;;;;;;;5.33;4.10;;;16.00;99.90;;;;;;5044391;28;20203;-60
2022/06/27 01:10:10;;;;;;;4.00;3.30;;;16.10;99.90;;;;;;5048126;28;20213;-60
2022/06/27 01:12:41;;;;;;;5.47;3.87;;;16.10;99.90;;;;;;5045886;28;20224;-60
2022/06/27 01:15:10;;;;;;;7.83;3.67;;;16.10;99.90;;;;;;5047770;28;20201;-60
2022/06/27 01:17:39;;;;;;;4.40;3.27;;;16.10;99.90;;;;;;5046090;28;20661;-60
2022/06/27 01:20:10;;;;;;;5.23;3.40;;;16.10;99.90;;;;;;5049237;28;20522;-60
2022/06/27 01:22:40;;;;;;;3.40;3.30;;;16.00;99.90;;;;;;5054954;28;20529;-62
2022/06/27 01:25:12;;;;;;;5.27;3.50;;;16.10;99.90;;;;;;5047335;28;20852;-62
2022/06/27 01:27:40;;;;;;;6.20;3.73;;;16.10;99.90;;;;;;5045538;28;20663;-62
2022/06/27 01:30:10;;;;;;;5.53;3.37;;;16.10;99.90;;;;;;5051177;28;20879;-62
2022/06/27 01:32:39;;;;;;;4.40;4.00;;;16.10;99.90;;;;;;5083463;28;20247;-62
2022/06/27 01:35:09;;;;;;;3.83;3.63;;;16.10;99.90;;;;;;5049925;28;20186;-62
2022/06/27 01:37:42;;;;;;;4.47;4.03;;;16.10;99.90;;;;;;5052785;28;20192;-62
2022/06/27 01:40:10;;;;;;;5.60;3.83;;;16.10;99.90;;;;;;5052202;28;20195;-62
2022/06/27 01:42:39;;;;;;;5.23;3.97;;;16.10;99.90;;;;;;5049072;28;20288;-60
2022/06/27 01:45:09;;;;;;;4.33;3.93;;;16.10;99.90;;;;;;5048411;28;20200;-60
2022/06/27 01:47:38;;;;;;;4.23;3.87;;;16.10;99.90;;;;;;5048173;28;20202;-60
2022/06/27 01:50:07;;;;;;;4.93;3.70;;;16.00;99.90;;;;;;5043050;28;20315;-60
2022/06/27 01:52:36;;;;;;;3.53;3.40;;;16.00;99.90;;;;;;5051015;28;20224;-60
2022/06/27 01:55:08;;;;;;;3.90;3.60;;;15.90;99.90;;;;;;5051644;28;20275;-60
2022/06/27 01:57:36;;;;;;;3.80;3.50;;;15.90;99.90;;;;;;5049047;28;20205;-60
2022/06/27 02:00:07;;;;;;;4.97;3.70;;;15.80;99.90;;;;;;5080829;28;20209;-60
2022/06/27 02:02:35;;;;;;;5.70;3.63;;;15.80;99.90;;;;;;5044984;28;20663;-60
2022/06/27 02:05:03;;;;;;;4.63;3.50;;;15.80;99.90;;;;;;5048155;28;20305;-60
2022/06/27 02:07:33;;;;;;;5.37;3.90;;;15.80;99.90;;;;;;5053159;28;20188;-60
2022/06/27 02:10:02;;;;;;;4.43;3.83;;;15.70;99.90;;;;;;5048133;28;20197;-62
2022/06/27 02:12:31;;;;;;;3.80;3.60;;;15.70;99.90;;;;;;5040137;28;20299;-62
2022/06/27 02:15:00;;;;;;;4.00;3.67;;;15.70;99.90;;;;;;5048723;28;20319;-62
2022/06/27 02:17:29;;;;;;;4.17;3.87;;;15.70;99.90;;;;;;5049342;28;20233;-62
2022/06/27 02:19:57;;;;;;;5.77;3.57;;;15.70;99.90;;;;;;5066438;28;20609;-62
2022/06/27 02:22:26;;;;;;;6.43;3.63;;;15.70;99.90;;;;;;5050589;28;22293;-62
2022/06/27 02:24:55;;;;;;;4.43;3.70;;;15.60;99.90;;;;;;5049548;28;20197;-60
2022/06/27 02:27:25;;;;;;;3.83;3.50;;;15.60;99.90;;;;;;5049015;28;20534;-60
2022/06/27 02:29:55;;;;;;;3.63;3.40;;;15.60;99.90;;;;;;5046729;28;20656;-60
2022/06/27 02:32:24;;;;;;;4.27;3.93;;;15.60;99.90;;;;;;5048377;28;20704;-60
2022/06/27 02:34:55;;;;;;;4.10;3.77;;;15.60;99.90;;;;;;5046677;28;20185;-60
2022/06/27 02:37:24;;;;;;;4.70;3.90;;;15.60;99.90;;;;;;5048638;28;20193;-60
2022/06/27 02:39:55;;;;;;;5.20;3.80;;;15.60;99.90;;;;;;5051761;28;20220;-60
2022/06/27 02:42:26;;;;;;;3.87;3.57;;;15.60;99.90;;;;;;5048198;28;20648;-60
2022/06/27 02:44:57;;;;;;;6.30;3.73;;;15.60;99.90;;;;;;5046293;28;20204;-60
2022/06/27 02:47:28;;;;;;;4.03;3.70;;;15.60;99.90;;;;;;5064867;28;20189;-60
2022/06/27 02:49:59;;;;;;;4.43;4.03;;;15.60;99.90;;;;;;5048794;28;20237;-60
2022/06/27 02:52:31;;;;;;;4.50;3.90;;;15.60;99.90;;;;;;5048687;28;20691;-60
2022/06/27 02:55:04;;;;;;;3.50;3.30;;;15.60;99.90;;;;;;5051706;28;20219;-60
2022/06/27 02:57:39;;;;;;;4.57;4.17;;;15.60;99.90;;;;;;5048134;28;20247;-62
2022/06/27 03:00:12;;;;;;;5.73;4.37;;;15.70;99.90;;;;;;5045887;28;20291;-62
2022/06/27 03:02:42;;;;;;;5.70;4.00;;;15.70;99.90;;;;;;5047327;28;20701;-60
2022/06/27 03:05:12;;;;;;;4.27;4.00;;;15.60;99.90;;;;;;5046780;28;20197;-60
2022/06/27 03:07:42;;;;;;;4.40;4.00;;;15.60;99.90;;;;;;5048562;28;20292;-62
2022/06/27 03:10:12;;;;;;;7.30;4.00;;;15.60;99.90;;;;;;5050343;28;20258;-62
2022/06/27 03:12:40;;;;;;;6.53;4.30;;;15.60;99.90;;;;;;5049286;28;20221;-62
2022/06/27 03:15:11;;;;;;;7.17;4.10;;;15.60;99.90;;;;;;5046376;28;20267;-62
2022/06/27 03:17:40;;;;;;;4.10;3.90;;;15.60;99.90;;;;;;5049919;28;20216;-62
2022/06/27 03:20:10;;;;;;;9.27;3.83;;;15.70;99.90;;;;;;5049000;28;20224;-62
2022/06/27 03:22:38;;;;;;;4.00;3.70;;;15.60;99.90;;;;;;5055719;28;20281;-62
2022/06/27 03:25:07;;;;;;;3.97;3.60;;;15.60;99.90;;;;;;5056573;28;20628;-62
2022/06/27 03:27:38;;;;;;;6.03;4.40;;;15.60;99.90;;;;;;5048968;28;20568;-62
2022/06/27 03:30:08;;;;;;;6.67;3.63;;;15.60;99.90;;;;;;5045667;28;20198;-62
2022/06/27 03:32:38;;;;;;;6.60;3.80;;;15.60;99.90;;;;;;5051454;28;20310;-62
2022/06/27 03:35:07;;;;;;;5.97;3.97;;;15.50;99.90;;;;;;5077366;28;20251;-62
2022/06/27 03:37:36;;;;;;;4.97;4.20;;;15.50;99.90;;;;;;5050728;28;20254;-62
2022/06/27 03:40:06;;;;;;;4.40;3.80;;;15.50;99.90;;;;;;5049430;28;20843;-62
2022/06/27 03:42:35;;;;;;;7.57;4.40;;;15.40;99.90;;;;;;5045468;28;20197;-62
2022/06/27 03:45:04;;;;;;;8.10;4.40;;;15.40;99.90;;;;;;5048066;28;20212;-62
2022/06/27 03:47:33;;;;;;;5.93;4.33;;;15.40;99.90;;;;;;5044597;28;20200;-62
2022/06/27 03:50:03;;;;;;;4.67;4.27;;;15.50;99.90;;;;;;5051782;28;20252;-62
2022/06/27 03:52:32;;;;;;;9.57;4.93;;;15.50;99.90;;;;;;5044904;28;20300;-62
2022/06/27 03:55:00;;;;;;;7.10;4.30;;;15.50;99.90;;;;;;5048762;28;20200;-62
2022/06/27 03:57:29;;;;;;;6.70;4.90;;;15.40;99.90;;;;;;5048281;28;20208;-62
2022/06/27 03:59:57;;;;;;;5.73;4.10;;;15.40;99.90;;;;;;5050122;28;20274;-62
2022/06/27 04:02:27;;;;;;;5.63;4.40;;;15.50;99.90;;;;;;5076442;28;20196;-62
2022/06/27 04:04:56;;;;;;;10.10;4.77;;;15.50;99.90;;;;;;5045523;28;20203;-62
2022/06/27 04:07:26;;;;;;;4.83;4.50;;;15.50;99.90;;;;;;5046181;28;20195;-60
2022/06/27 04:09:54;;;;;;;5.43;4.70;;;15.50;99.90;;;;;;5048910;28;20205;-62
2022/06/27 04:12:23;;;;;;;7.23;4.63;;;15.40;99.90;;;;;;5048499;28;20212;-62
2022/06/27 04:14:52;;;;;;;7.87;4.77;;;15.40;99.90;;;;;;5048125;28;20233;-62
2022/06/27 04:17:20;;;;;;;7.87;4.37;;;15.30;99.90;;;;;;5075342;28;20204;-62
2022/06/27 04:19:49;;;;;;;8.13;4.80;;;15.30;99.90;;;;;;5051546;28;20727;-62
2022/06/27 04:22:17;;;;;;;4.77;4.37;;;15.30;99.90;;;;;;5046014;28;20212;-62
2022/06/27 04:24:47;;;;;;;9.90;4.70;;;15.30;99.90;;;;;;5046480;28;20287;-62
2022/06/27 04:27:20;;;;;;;5.50;4.67;;;15.30;99.90;;;;;;5048947;28;20613;-62
2022/06/27 04:29:49;;;;;;;6.27;4.80;;;15.30;99.90;;;;;;5047038;28;20281;-62
2022/06/27 04:32:19;;;;;;;4.90;4.37;;;15.20;99.90;;;;;;5045381;28;20220;-62
2022/06/27 04:34:47;;;;;;;4.80;4.43;;;15.20;99.90;;;;;;5055256;28;20204;-62
2022/06/27 04:37:17;;;;;;;7.00;4.90;;;15.20;99.90;;;;;;5047173;28;20200;-62
2022/06/27 04:39:47;;;;;;;8.60;4.93;;;15.20;99.90;;;;;;5047607;28;20204;-62
2022/06/27 04:42:18;;;;;;;6.57;4.70;;;15.20;99.90;;;;;;5044936;28;20232;-62
2022/06/27 04:44:46;;;;;;;10.13;4.73;;;15.30;99.90;;;;;;5045756;28;20586;-62
2022/06/27 04:47:15;;;;;;;4.63;4.33;;;15.40;99.90;;;;;;5047388;28;20205;-62
2022/06/27 04:49:44;;;;;;;5.87;5.27;;;15.40;99.90;;;;;;5042067;28;20227;-62
2022/06/27 04:52:15;;;;;;;5.93;5.03;;;15.50;99.90;;;;;;5059791;28;20219;-62
2022/06/27 04:54:44;;;;;;;6.00;5.20;;;15.50;99.90;;;;;;5040678;28;20196;-62
2022/06/27 04:57:14;;;;;;;7.30;5.40;;;15.50;99.90;;;;;;5079026;28;20208;-62
2022/06/27 04:59:42;;;;;;;6.40;5.00;;;15.60;99.90;;;;;;5047032;28;20235;-62
2022/06/27 05:02:10;;;;;;;5.50;5.00;;;15.60;99.90;;;;;;5048874;28;20220;-62
2022/06/27 05:04:39;;;;;;;6.57;5.10;;;15.70;99.90;;;;;;5046985;28;20204;-62
2022/06/27 05:07:08;;;;;;;6.70;5.13;;;15.70;99.90;;;;;;5050156;28;20258;-62
2022/06/27 05:09:36;;;;;;;5.73;5.07;;;15.80;99.90;;;;;;5048416;28;20267;-62
2022/06/27 05:12:05;;;;;;;7.23;5.20;;;15.80;99.90;;;;;;5055647;28;20201;-62
2022/06/27 05:14:35;;;;;;;8.87;5.00;;;15.90;99.90;;;;;;5084231;28;20282;-62
2022/06/27 05:17:05;;;;;;;8.93;5.60;;;15.90;99.90;;;;;;5051527;28;20262;-62
2022/06/27 05:19:34;;;;;;;6.80;5.00;;;15.90;99.90;;;;;;5049054;28;20307;-62
2022/06/27 05:22:03;;;;;;;8.67;5.00;;;16.00;99.90;;;;;;5053428;28;20648;-62
2022/06/27 05:24:31;;;;;;;5.60;4.97;;;16.00;99.90;;;;;;5050164;28;20558;-62
2022/06/27 05:26:59;;;;;;;5.33;4.83;;;16.00;99.90;;;;;;5052978;28;20205;-62
2022/06/27 05:29:28;;;;;;;5.60;4.83;;;16.00;99.90;;;;;;5049625;28;20541;-62
2022/06/27 05:31:58;;;;;;;10.03;5.20;;;16.10;99.90;;;;;;5049777;28;20284;-62
2022/06/27 05:34:28;;;;;;;6.80;5.53;;;16.10;99.90;;;;;;5050274;28;20228;-62
2022/06/27 05:36:57;;;;;;;6.43;5.30;;;16.20;99.90;;;;;;5051406;28;20193;-62
2022/06/27 05:39:25;;;;;;;7.07;5.30;;;16.30;99.90;;;;;;5044375;28;20201;-62
2022/06/27 05:41:55;;;;;;;5.70;5.20;;;16.30;99.90;;;;;;5051838;28;20208;-62
2022/06/27 05:44:25;;;;;;;6.17;4.87;;;16.40;99.90;;;;;;5048458;28;20220;-62
2022/06/27 05:46:53;;;;;;;7.30;4.80;;;16.40;99.90;;;;;;5077321;28;20203;-62
2022/06/27 05:49:24;;;;;;;7.40;4.60;;;16.50;99.90;;;;;;5048275;28;20230;-62
2022/06/27 05:51:53;;;;;;;6.77;4.70;;;16.50;99.90;;;;;;5050838;28;20205;-62
2022/06/27 05:54:22;;;;;;;5.57;4.67;;;16.60;99.90;;;;;;5050599;28;20235;-62
2022/06/27 05:56:50;;;;;;;6.77;4.07;;;16.60;99.90;;;;;;5045079;28;20210;-62
2022/06/27 05:59:19;;;;;;;7.43;4.40;;;16.60;99.90;;;;;;5046919;28;20213;-62
2022/06/27 06:01:49;;;;;;;5.63;4.17;;;16.70;99.90;;;;;;5045888;28;20201;-62
2022/06/27 06:04:20;;;;;;;5.03;3.80;;;16.70;99.90;;;;;;5049175;28;20291;-62
2022/06/27 06:06:50;;;;;;;8.87;4.10;;;16.70;99.90;;;;;;5052096;28;20193;-62
2022/06/27 06:09:18;;;;;;;7.00;3.93;;;16.70;99.90;;;;;;5052967;28;20526;-62
2022/06/27 06:11:48;;;;;;;8.07;4.27;;;16.70;99.90;;;;;;5048527;28;20296;-62
2022/06/27 06:14:19;;;;;;;6.83;4.20;;;16.70;99.90;;;;;;5045388;28;20287;-62
2022/06/27 06:16:48;;;;;;;6.40;4.37;;;16.70;99.90;;;;;;5049538;28;20219;-62
2022/06/27 06:19:17;;;;;;;5.13;3.70;;;16.70;99.90;;;;;;5048952;28;20591;-62
2022/06/27 06:21:46;;;;;;;8.47;3.90;;;16.80;99.90;;;;;;5051730;28;20652;-62
2022/06/27 06:24:16;;;;;;;5.23;3.83;;;16.80;99.90;;;;;;5084839;28;20778;-62
2022/06/27 06:26:45;;;;;;;5.07;4.07;;;16.90;99.90;;;;;;5050737;28;20200;-62
2022/06/27 06:29:15;;;;;;;4.60;4.10;;;16.90;99.90;;;;;;5047915;28;20214;-62
2022/06/27 06:31:44;;;;;;;5.07;4.20;;;17.00;99.90;;;;;;5045551;28;20201;-62
2022/06/27 06:34:15;;;;;;;6.40;3.90;;;17.00;99.90;;;;;;5045793;28;20221;-62
2022/06/27 06:36:45;;;;;;;4.33;4.03;;;17.10;99.90;;;;;;5051373;28;20197;-62
2022/06/27 06:39:15;;;;;;;6.47;3.77;;;17.00;99.90;;;;;;5051472;28;20189;-62
2022/06/27 06:41:45;;;;;;;6.77;3.83;;;17.00;99.90;;;;;;5049025;28;20201;-62
2022/06/27 06:44:13;;;;;;;4.87;3.90;;;17.10;99.90;;;;;;5079386;28;20202;-62
2022/06/27 06:46:41;;;;;;;10.57;4.20;;;17.30;99.90;;;;;;5050385;28;20205;-62
2022/06/27 06:49:11;;;;;;;7.60;3.83;;;17.30;99.90;;;;;;5083379;28;20201;-62
2022/06/27 06:51:42;;;;;;;8.17;4.10;;;17.40;99.90;;;;;;5050329;28;20208;-62
2022/06/27 06:54:12;;;;;;;8.40;4.20;;;17.40;99.90;;;;;;5049965;28;20247;-62
2022/06/27 06:56:42;;;;;;;4.17;3.87;;;17.40;99.90;;;;;;5051427;28;20236;-62
2022/06/27 06:59:11;;;;;;;7.40;4.23;;;17.40;99.90;;;;;;5046058;28;20202;-62
2022/06/27 07:01:40;;;;;;;5.17;4.27;;;17.40;99.90;;;;;;5049788;28;20224;-62
2022/06/27 07:04:08;;;;;;;5.27;4.33;;;17.50;99.90;;;;;;5039127;28;20466;-62
2022/06/27 07:06:38;;;;;;;7.80;4.03;;;17.60;99.90;;;;;;5051374;28;20284;-62
2022/06/27 07:09:07;;;;;;;6.70;3.80;;;17.60;99.90;;;;;;5047599;28;20836;-62
2022/06/27 07:11:38;;;;;;;5.17;4.10;;;17.70;99.90;;;;;;5050892;28;20222;-62
2022/06/27 07:14:08;;;;;;;7.47;4.37;;;17.70;99.90;;;;;;5048737;28;20359;-62
2022/06/27 07:16:37;;;;;;;6.13;3.83;;;17.70;99.90;;;;;;5048768;28;20181;-62
2022/06/27 07:19:06;;;;;;;5.57;4.10;;;17.70;99.90;;;;;;5041814;28;20222;-62
2022/06/27 07:21:36;;;;;;;6.13;3.57;;;17.70;99.90;;;;;;5049539;28;20199;-62
2022/06/27 07:24:08;;;;;;;7.30;3.77;;;17.80;99.90;;;;;;5045515;28;20185;-62
2022/06/27 07:26:37;;;;;;;8.50;3.80;;;17.90;99.90;;;;;;5053053;28;20227;-62
2022/06/27 07:29:07;;;;;;;7.27;4.03;;;18.00;99.90;;;;;;5045133;28;20236;-62
2022/06/27 07:31:36;;;;;;;5.53;4.13;;;18.00;99.90;;;;;;5048513;28;20256;-62
2022/06/27 07:34:07;;;;;;;4.80;3.47;;;18.10;99.90;;;;;;5047105;28;20224;-62
2022/06/27 07:36:38;;;;;;;5.43;3.70;;;18.10;99.90;;;;;;5050292;28;20247;-62
2022/06/27 07:39:07;;;;;;;8.00;4.00;;;18.20;99.90;;;;;;5047239;28;20559;-62
2022/06/27 07:41:36;;;;;;;6.03;3.33;;;18.20;99.90;;;;;;5048877;28;20276;-62
2022/06/27 07:44:05;;;;;;;8.70;4.10;;;18.20;99.90;;;;;;5046184;28;20192;-62
2022/06/27 07:46:35;;;;;;;4.03;3.43;;;18.20;99.90;;;;;;5050030;28;20200;-62
2022/06/27 07:49:04;;;;;;;7.77;3.90;;;18.30;99.90;;;;;;5047659;28;20197;-61
2022/06/27 07:51:35;;;;;;;7.83;4.33;;;18.40;99.90;;;;;;5050316;28;20193;-62
2022/06/27 07:54:04;;;;;;;4.53;4.10;;;18.50;99.90;;;;;;5043469;28;20212;-62
2022/06/27 07:56:34;;;;;;;6.30;4.30;;;18.50;99.90;;;;;;5046923;28;20279;-62
2022/06/27 07:59:26;;;;;;;6.27;4.10;;;18.60;99.90;;;;;;5046904;28;20192;-62
2022/06/27 08:01:55;;;;;;;6.50;3.63;;;18.60;99.90;;;;;;5045903;28;20200;-62
2022/06/27 08:04:24;;;;;;;8.23;3.43;;;18.70;99.90;;;;;;5045667;28;20195;-62
2022/06/27 08:06:53;;;;;;;6.10;3.93;;;18.80;99.90;;;;;;5047392;28;20215;-62
2022/06/27 08:09:22;;;;;;;4.53;3.87;;;18.70;99.90;;;;;;5045032;28;20193;-62
2022/06/27 08:11:51;;;;;;;7.23;4.10;;;18.70;99.90;;;;;;5049574;28;20605;-61
2022/06/27 08:14:20;;;;;;;9.07;4.87;;;18.60;99.90;;;;;;5047714;28;20638;-62
2022/06/27 08:16:51;;;;;;;10.37;4.83;;;18.70;99.90;;;;;;5048588;28;20679;-61
2022/06/27 08:19:23;;;;;;;10.77;5.17;;;18.60;99.90;;;;;;5046517;28;20266;-61
2022/06/27 08:21:52;;;;;;;7.40;4.70;;;18.70;99.90;;;;;;5048636;28;20552;-61
2022/06/27 08:24:20;;;;;;;8.20;4.50;;;18.70;99.90;;;;;;5040552;28;20275;-61
2022/06/27 08:26:50;;;;;;;5.37;4.43;;;18.60;99.90;;;;;;5048030;28;20201;-61
2022/06/27 08:29:20;;;;;;;5.83;4.80;;;18.50;99.90;;;;;;5047844;28;20207;-61
2022/06/27 08:31:52;;;;;;;7.23;5.03;;;18.50;99.90;;;;;;5047671;28;20207;-61
2022/06/27 08:34:23;;;;;;;12.30;5.27;;;18.40;99.90;;;;;;5045359;28;20320;-62
2022/06/27 08:36:52;;;;;;;11.10;5.43;;;18.40;99.90;;;;;;5047475;28;21514;-61
2022/06/27 08:39:21;;;;;;;9.10;4.73;;;18.40;99.90;;;;;;5045206;28;20196;-61
2022/06/27 08:41:50;;;;;;;8.67;5.13;;;18.40;99.90;;;;;;5043159;28;20201;-62
2022/06/27 08:44:21;;;;;;;12.47;5.20;;;18.40;99.90;;;;;;5052081;28;20207;-61
2022/06/27 08:46:51;;;;;;;7.43;5.73;;;18.40;99.90;;;;;;5045679;28;20257;-61
2022/06/27 08:49:22;;;;;;;13.57;5.60;;;18.40;99.90;;;;;;5045953;28;20233;-62
2022/06/27 08:51:50;;;;;;;9.53;4.63;;;18.50;99.90;;;;;;5049710;28;20213;-61
2022/06/27 08:54:19;;;;;;;8.17;4.80;;;18.50;99.90;;;;;;5046085;28;20263;-61
2022/06/27 08:56:47;;;;;;;9.07;5.03;;;18.60;99.90;;;;;;5050824;28;20292;-62
2022/06/27 08:59:16;;;;;;;9.90;5.23;;;18.60;99.90;;;;;;5049503;28;20205;-61
2022/06/27 09:01:48;;;;;;;11.40;6.80;;;18.60;99.90;;;;;;5075176;28;20203;-61
2022/06/27 09:04:17;;;;;;;12.13;6.30;;;18.60;99.90;;;;;;5053247;28;20224;-61
2022/06/27 09:06:58;;;;;;;17.17;8.33;;;18.50;99.90;;;;;;5044583;28;20231;-61
2022/06/27 09:09:27;;;;;;;9.57;5.50;;;18.50;99.90;;;;;;5078207;28;20279;-61
2022/06/27 09:11:57;;;;;;;14.87;5.53;;;18.50;99.90;;;;;;5044602;28;20291;-61
2022/06/27 09:14:37;;;;;;;14.30;7.00;;;18.50;99.90;;;;;;5052752;28;20327;-62
2022/06/27 09:17:09;;;;;;;10.10;5.90;;;18.40;99.90;;;;;;5045298;28;20202;-61
2022/06/27 09:19:49;;;;;;;11.33;4.80;;;18.40;99.90;;;;;;5061291;28;20201;-61
2022/06/27 09:22:21;;;;;;;9.90;4.60;;;18.50;99.90;;;;;;5043113;28;20185;-62
2022/06/27 09:25:05;;;;;;;9.57;4.23;;;18.50;99.90;;;;;;5045592;28;20196;-61
2022/06/27 09:27:43;;;;;;;10.60;4.53;;;18.50;99.90;;;;;;5047278;28;20269;-61
2022/06/27 09:30:25;;;;;;;10.63;4.27;;;18.50;99.90;;;;;;5049002;28;20276;-61
2022/06/27 09:32:56;;;;;;;14.97;5.00;;;18.60;99.90;;;;;;5048480;28;20231;-61
2022/06/27 09:35:27;;;;;;;11.63;4.20;;;18.60;99.90;;;;;;5049049;28;20327;-61
2022/06/27 09:37:59;;;;;;;10.93;4.90;;;18.70;99.90;;;;;;5064539;28;20192;-61
2022/06/27 09:40:30;;;;;;;9.97;4.90;;;18.90;99.90;;;;;;5047569;28;20199;-61
2022/06/27 09:43:06;;;;;;;6.23;4.30;;;19.00;99.90;;;;;;5040071;28;20223;-61
2022/06/27 09:45:34;;;;;;;7.33;4.27;;;19.00;99.90;;;;;;5048928;28;20220;-61
2022/06/27 09:48:04;;;;;;;7.77;4.30;;;19.00;99.90;;;;;;5047845;28;20585;-61
2022/06/27 09:50:36;;;;;;;11.43;3.93;;;19.00;99.90;;;;;;5050549;28;20314;-61
2022/06/27 09:53:07;;;;;;;18.03;4.37;;;19.00;99.90;;;;;;5049906;28;20664;-61
2022/06/27 09:55:37;;;;;;;10.20;4.70;;;19.10;99.90;;;;;;5051053;28;20217;-61
2022/06/27 09:58:07;;;;;;;9.00;4.33;;;19.20;99.90;;;;;;5050957;28;20287;-61
2022/06/27 10:00:40;;;;;;;11.30;4.70;;;19.30;99.90;;;;;;5050996;28;20565;-61
2022/06/27 10:03:11;;;;;;;13.23;4.37;;;19.40;99.90;;;;;;5049386;28;21928;-61
2022/06/27 10:05:43;;;;;;;9.47;4.43;;;19.30;99.90;;;;;;5051383;28;20192;-61
2022/06/27 10:08:14;;;;;;;10.83;4.30;;;19.30;99.90;;;;;;5051225;28;20204;-61
2022/06/27 10:11:07;;;;;;;7.60;4.00;;;19.30;99.90;;;;;;5051436;28;20193;-61
2022/06/27 10:13:37;;;;;;;10.63;4.53;;;19.30;99.90;;;;;;5055024;28;20206;-62
2022/06/27 10:16:16;;;;;;;10.17;3.93;;;19.20;99.90;;;;;;5052989;28;20240;-61
2022/06/27 10:19:05;;;;;;;10.77;4.67;;;19.10;99.90;;;;;;5050765;28;20210;-61
2022/06/27 10:21:41;;;;;;;7.37;4.23;;;19.10;99.90;;;;;;5049223;28;20196;-61
2022/06/27 10:24:35;;;;;;;7.13;3.83;;;19.00;99.90;;;;;;5051862;28;20720;-61
2022/06/27 10:27:06;;;;;;;7.37;4.07;;;19.00;99.90;;;;;;5080766;28;20217;-61
2022/06/27 10:29:46;;;;;;;8.00;4.07;;;18.90;99.90;;;;;;5044989;28;20731;-61
2022/06/27 10:32:41;;;;;;;11.93;4.33;;;18.90;99.90;;;;;;5047311;28;20188;-61
2022/06/27 10:35:23;;;;;;;6.53;4.87;;;18.90;99.90;;;;;;5046931;28;20614;-62
2022/06/27 10:37:52;;;;;;;13.07;5.37;;;18.90;99.90;;;;;;5051352;28;20664;-61
2022/06/27 10:40:44;;;;;;;10.87;5.47;;;18.90;99.90;;;;;;5052346;28;20276;-61
2022/06/27 10:43:46;;;;;;;9.17;5.97;;;18.80;99.90;;;;;;5068637;28;20199;-61
2022/06/27 10:46:41;;;;;;;15.47;7.23;;;18.70;99.90;;;;;;5047104;28;20196;-61
2022/06/27 10:49:20;;;;;;;16.13;7.60;;;18.50;99.90;;;;;;5075028;28;20262;-61
2022/06/27 10:51:49;;;;;;;11.53;7.17;;;18.20;99.90;;;;;;5052012;28;20658;-61
2022/06/27 10:54:17;;;;;;;13.70;7.33;;;17.90;99.90;;;;;;5047462;28;20351;-61
2022/06/27 10:56:49;;;;;;;20.97;8.37;;;17.70;99.90;;;;;;5047845;28;20227;-61
2022/06/27 10:59:55;;;;;;;20.00;8.27;;;17.60;99.90;;;;;;5070214;28;20190;-61
2022/06/27 11:02:28;;;;;;;14.47;7.73;;;17.60;99.90;;;;;;4965145;28;20199;-61
2022/06/27 11:04:58;;;;;;;15.93;7.97;;;17.50;99.90;;;;;;5036003;28;20202;-61
2022/06/27 11:07:27;;;;;;;16.17;7.87;;;17.50;99.90;;;;;;5048827;28;20246;-61
2022/06/27 11:09:56;;;;;;;13.67;8.13;;;17.40;99.90;;;;;;5051176;28;20206;-61
2022/06/27 11:12:36;;;;;;;13.47;8.43;;;17.30;99.90;;;;;;5056641;28;20615;-61
2022/06/27 11:15:06;;;;;;;19.47;8.37;;;17.40;99.90;;;;;;5044958;28;20230;-65
2022/06/27 11:17:42;;;;;;;13.37;8.33;;;17.40;99.90;;;;;;5047444;28;20204;-64
2022/06/27 11:20:16;;;;;;;13.53;8.10;;;17.50;99.90;;;;;;5048948;28;20190;-65
2022/06/27 11:23:05;;;;;;;17.00;7.60;;;17.40;99.90;;;;;;5046790;28;20676;-65
2022/06/27 11:25:34;;;;;;;11.70;8.23;;;17.20;99.90;;;;;;5048928;28;20226;-64
2022/06/27 11:33:35;;;;;;;8.90;4.43;;;16.30;99.90;;;;;;5048317;28;20220;-63
2022/06/27 11:36:05;;;;;;;5.03;4.00;;;16.00;99.90;;;;;;5067392;28;20308;-63
2022/06/27 11:38:44;;;;;;;6.10;4.00;;;15.60;99.90;;;;;;5048181;28;20207;-61
2022/06/27 11:41:14;;;;;;;8.13;4.73;;;15.30;99.90;;;;;;5050750;28;20275;-62
2022/06/27 11:43:58;;;;;;;9.23;4.17;;;15.10;99.90;;;;;;5043810;28;20279;-64
2022/06/27 11:46:32;;;;;;;12.13;4.20;;;15.00;99.90;;;;;;5049610;28;20276;-63
2022/06/27 11:49:04;;;;;;;7.60;3.70;;;14.80;99.90;;;;;;5050777;28;20196;-61
2022/06/27 11:51:35;;;;;;;5.50;3.33;;;14.60;99.90;;;;;;5051696;28;20603;-64
2022/06/27 11:54:10;;;;;;;5.70;3.67;;;14.50;99.90;;;;;;5050457;28;20201;-63
2022/06/27 11:56:40;;;;;;;5.20;3.40;;;14.40;99.90;;;;;;5040576;28;20212;-64
2022/06/27 11:59:12;;;;;;;6.13;3.23;;;14.30;99.90;;;;;;5046846;28;20197;-64
2022/06/27 12:01:52;;;;;;;3.13;2.93;;;14.40;99.90;;;;;;5067032;28;20537;-64
2022/06/27 12:04:23;;;;;;;2.60;2.50;;;14.30;99.90;;;;;;5049081;28;20249;-64
2022/06/27 12:06:54;;;;;;;3.37;2.83;;;14.10;99.90;;;;;;5049682;28;20936;-64
2022/06/27 12:09:25;;;;;;;6.23;2.80;;;14.00;99.90;;;;;;5046979;28;20342;-63
2022/06/27 12:12:04;;;;;;;3.90;2.53;;;14.00;99.90;;;;;;5048825;28;20680;-63
2022/06/27 12:14:47;;;;;;;4.63;2.47;;;13.90;99.90;;;;;;5044964;28;20283;-64
2022/06/27 12:17:16;;;;;;;4.30;2.50;;;13.90;99.90;;;;;;5066377;28;20212;-64
2022/06/27 12:19:44;;;;;;;4.57;3.20;;;14.00;99.90;;;;;;5044751;28;20688;-65
2022/06/27 12:22:18;;;;;;;4.30;3.17;;;14.20;99.90;;;;;;5048960;28;20521;-65
2022/06/27 12:25:07;;;;;;;7.53;3.17;;;14.30;99.90;;;;;;5051770;28;20199;-65
2022/06/27 12:27:35;;;;;;;4.07;3.37;;;14.50;99.90;;;;;;5046407;28;20212;-65
2022/06/27 12:30:06;;;;;;;3.67;3.20;;;14.70;99.90;;;;;;5047179;28;20656;-65
2022/06/27 12:32:35;;;;;;;4.73;3.20;;;14.70;99.90;;;;;;5043089;28;20282;-65
2022/06/27 12:35:06;;;;;;;3.23;2.87;;;14.70;99.90;;;;;;5046821;28;20300;-65
2022/06/27 12:37:42;;;;;;;5.47;2.93;;;14.70;99.90;;;;;;5045669;28;20213;-65
2022/06/27 12:40:11;;;;;;;4.20;3.40;;;14.70;99.90;;;;;;5047722;28;20216;-65
2022/06/27 12:42:40;;;;;;;3.00;2.70;;;14.80;99.90;;;;;;5046480;28;20954;-65
2022/06/27 12:45:12;;;;;;;3.27;3.00;;;14.80;99.90;;;;;;5046971;28;20196;-65
2022/06/27 12:47:41;;;;;;;6.70;3.00;;;14.90;99.90;;;;;;5048221;28;20189;-65
2022/06/27 12:50:10;;;;;;;3.33;2.93;;;15.10;99.90;;;;;;5045086;28;20301;-66
2022/06/27 12:52:39;;;;;;;3.80;3.00;;;15.20;99.90;;;;;;5051613;28;20224;-66
2022/06/27 12:55:11;;;;;;;4.03;3.20;;;15.40;99.90;;;;;;5048161;28;20596;-65
2022/06/27 12:57:39;;;;;;;6.57;3.27;;;15.60;99.90;;;;;;5047376;28;20263;-66
2022/06/27 13:00:11;;;;;;;4.10;3.23;;;15.80;99.90;;;;;;5046623;28;20197;-66
2022/06/27 13:02:39;;;;;;;3.57;3.17;;;16.20;99.90;;;;;;5049332;28;20281;-65
2022/06/27 13:05:09;;;;;;;2.53;2.43;;;16.50;99.90;;;;;;5062119;28;20230;-65
2022/06/27 13:07:38;;;;;;;2.10;2.00;;;16.40;99.90;;;;;;5047003;28;20709;-65
2022/06/27 13:10:07;;;;;;;2.50;2.30;;;16.40;99.90;;;;;;5049765;28;20913;-65